Time;durP1;ratioP1;P1;durP2;ratioP2;P2;SDS_P1;SDS_P2;PMS_P1;PMS_P2;Temp;Humidity;BMP_temperature;BMP_pressure;BME280_temperature;BME280_humidity;BME280_pressure;Samples;Min_cycle;Max_cycle;Signal;HPM_P1;HPM_P2
2023/08/31 00:00:29;;;;;;;1.27;1.10;;;15.80;99.90;15.30;99317;;;;571653;246;24042;-78
2023/08/31 00:02:57;;;;;;;1.10;1.10;;;15.80;99.90;15.20;99318;;;;583955;243;24134;-79
2023/08/31 00:05:28;;;;;;;1.20;1.10;;;15.80;99.90;15.20;99315;;;;571124;246;24077;-79
2023/08/31 00:07:52;;;;;;;0.87;0.87;;;15.80;99.90;15.20;99318;;;;583489;246;24083;-78
2023/08/31 00:10:21;;;;;;;1.33;1.10;;;15.80;99.90;15.20;99315;;;;570654;246;24111;-77
2023/08/31 00:12:53;;;;;;;0.90;0.90;;;15.80;99.90;15.20;99317;;;;583613;244;24063;-78
2023/08/31 00:15:17;;;;;;;0.93;0.93;;;15.80;99.90;15.20;99321;;;;570540;246;24069;-78
2023/08/31 00:17:45;;;;;;;2.83;1.23;;;15.80;99.90;15.20;99316;;;;583705;244;24097;-79
2023/08/31 00:20:13;;;;;;;2.10;1.40;;;15.80;99.90;15.20;99325;;;;570940;246;24125;-79
2023/08/31 00:22:41;;;;;;;1.27;1.27;;;15.80;99.90;15.20;99324;;;;583679;244;24046;-79
2023/08/31 00:25:09;;;;;;;1.10;1.10;;;15.80;99.90;15.20;99325;;;;570881;246;24083;-79
2023/08/31 00:27:40;;;;;;;1.27;1.17;;;15.80;99.90;15.20;99327;;;;583276;244;24070;-78
2023/08/31 00:30:11;;;;;;;2.23;1.50;;;15.70;99.90;15.20;99326;;;;560634;251;24215;-79
2023/08/31 00:32:39;;;;;;;2.63;0.90;;;15.70;99.90;15.20;99321;;;;574399;246;24076;-79
2023/08/31 00:35:09;;;;;;;1.00;1.00;;;15.70;99.90;15.20;99321;;;;560465;251;24094;-79
2023/08/31 00:37:35;;;;;;;1.10;1.00;;;15.70;99.90;15.10;99316;;;;573871;245;24160;-79
2023/08/31 00:40:04;;;;;;;1.10;1.10;;;15.70;99.90;15.10;99326;;;;560114;251;24121;-79
2023/08/31 00:42:31;;;;;;;1.57;1.40;;;15.70;99.90;15.10;99328;;;;574306;246;24066;-78
2023/08/31 00:44:59;;;;;;;1.20;1.10;;;15.70;99.90;15.10;99322;;;;560108;251;24102;-78
2023/08/31 00:47:28;;;;;;;1.10;1.10;;;15.70;99.90;15.10;99324;;;;572730;245;24086;-79
2023/08/31 00:49:58;;;;;;;0.90;0.90;;;15.60;99.90;15.10;99318;;;;574002;246;24067;-78
2023/08/31 00:52:24;;;;;;;1.43;0.80;;;15.60;99.90;15.10;99317;;;;568468;248;24136;-78
2023/08/31 00:54:51;;;;;;;1.00;1.00;;;15.60;99.90;15.10;99326;;;;564340;250;24148;-77
2023/08/31 00:57:20;;;;;;;1.10;1.10;;;15.60;99.90;15.00;99326;;;;559650;248;24093;-77
2023/08/31 00:59:48;;;;;;;0.80;0.80;;;15.60;99.90;15.00;99328;;;;568449;251;24095;-77
2023/08/31 01:02:16;;;;;;;1.00;1.00;;;15.60;99.90;15.00;99326;;;;570670;246;24051;-78
2023/08/31 01:04:52;;;;;;;1.60;0.80;;;15.60;99.90;15.00;99327;;;;583256;245;24109;-78
2023/08/31 01:07:23;;;;;;;1.00;1.00;;;15.60;99.90;15.10;99341;;;;574710;244;24050;-77
2023/08/31 01:10:21;;;;;;;1.43;1.00;;;15.60;99.90;15.10;99337;;;;561381;251;24063;-78
2023/08/31 01:12:51;;;;;;;1.23;1.13;;;15.60;99.90;15.10;99337;;;;561975;251;24067;-79
2023/08/31 01:15:23;;;;;;;2.00;1.00;;;15.60;99.90;15.10;99335;;;;559545;251;24177;-78
2023/08/31 01:17:48;;;;;;;1.10;1.10;;;15.60;99.90;15.10;99330;;;;564569;251;24125;-78
2023/08/31 01:20:19;;;;;;;1.43;1.03;;;15.60;99.90;15.10;99332;;;;572778;246;24099;-78
2023/08/31 01:23:05;;;;;;;0.80;0.80;;;15.60;99.90;15.10;99340;;;;570848;246;24078;-79
2023/08/31 01:25:33;;;;;;;0.90;0.90;;;15.60;99.90;15.10;99340;;;;583790;245;24089;-79
2023/08/31 01:28:00;;;;;;;0.80;0.80;;;15.60;99.90;15.10;99335;;;;583373;246;24157;-78
2023/08/31 01:30:35;;;;;;;0.73;0.73;;;15.60;99.90;15.00;99342;;;;583366;244;24049;-79
2023/08/31 01:33:00;;;;;;;1.03;1.03;;;15.60;99.90;15.10;99346;;;;570343;246;24121;-79
2023/08/31 01:35:28;;;;;;;0.70;0.70;;;15.60;99.90;15.10;99341;;;;583291;246;24053;-78
2023/08/31 01:38:03;;;;;;;3.20;1.00;;;15.60;99.90;15.10;99338;;;;570357;246;24089;-78
2023/08/31 01:40:47;;;;;;;4.23;1.00;;;15.60;99.90;15.00;99344;;;;583175;244;24093;-78
2023/08/31 01:43:15;;;;;;;0.90;0.90;;;15.60;99.90;15.00;99331;;;;560213;251;24141;-79
2023/08/31 01:45:43;;;;;;;1.97;0.97;;;15.60;99.90;15.00;99327;;;;574448;246;24042;-78
2023/08/31 01:48:11;;;;;;;1.00;0.90;;;15.60;99.90;15.00;99321;;;;570251;246;24057;-77
2023/08/31 01:50:39;;;;;;;2.30;1.07;;;15.50;99.90;15.00;99314;;;;583100;244;24069;-79
2023/08/31 01:53:08;;;;;;;3.30;1.20;;;15.50;99.90;14.90;99314;;;;570662;246;24090;-78
2023/08/31 01:55:38;;;;;;;1.53;1.17;;;15.50;99.90;14.90;99323;;;;583199;246;24067;-78
2023/08/31 01:58:03;;;;;;;0.90;0.90;;;15.50;99.90;14.90;99322;;;;574393;246;24106;-79
2023/08/31 02:00:34;;;;;;;1.23;1.23;;;15.40;99.90;14.80;99326;;;;583497;244;24058;-78
2023/08/31 02:03:02;;;;;;;1.13;1.10;;;15.40;99.90;14.80;99324;;;;560435;251;24095;-78
2023/08/31 02:05:30;;;;;;;1.40;1.30;;;15.40;99.90;14.80;99325;;;;574429;246;24098;-78
2023/08/31 02:07:55;;;;;;;1.33;1.23;;;15.30;99.90;14.80;99322;;;;574446;246;24065;-78
2023/08/31 02:10:23;;;;;;;4.10;1.40;;;15.30;99.90;14.80;99324;;;;583453;244;24106;-78
2023/08/31 02:12:51;;;;;;;1.50;1.40;;;15.30;99.90;14.80;99333;;;;570659;246;24136;-78
2023/08/31 02:15:18;;;;;;;4.17;1.60;;;15.30;99.90;14.80;99325;;;;583385;244;24042;-79
2023/08/31 02:17:46;;;;;;;2.97;1.60;;;15.30;99.90;14.70;99326;;;;570720;246;24168;-79
2023/08/31 02:20:14;;;;;;;1.80;1.70;;;15.30;99.90;14.70;99320;;;;583440;244;24043;-79
2023/08/31 02:22:42;;;;;;;2.40;2.03;;;15.30;99.90;14.70;99329;;;;571624;246;24107;-79
2023/08/31 02:25:12;;;;;;;4.70;2.10;;;15.20;99.90;14.70;99327;;;;584083;243;24165;-79
2023/08/31 02:27:39;;;;;;;2.50;2.07;;;15.20;99.90;14.70;99326;;;;561279;251;24089;-79
2023/08/31 02:30:07;;;;;;;1.80;1.70;;;15.20;99.90;14.70;99321;;;;573636;248;24101;-79
2023/08/31 02:32:35;;;;;;;2.30;2.10;;;15.30;99.90;14.70;99326;;;;560295;252;25114;-78
2023/08/31 02:35:03;;;;;;;1.93;1.83;;;15.30;99.90;14.70;99326;;;;567277;248;24134;-78
2023/08/31 02:37:30;;;;;;;2.07;1.83;;;15.30;99.90;14.80;99318;;;;572595;246;24128;-78
2023/08/31 02:39:58;;;;;;;1.80;1.70;;;15.30;99.90;14.80;99325;;;;564765;251;24156;-78
2023/08/31 02:42:27;;;;;;;2.00;1.90;;;15.30;99.90;14.80;99334;;;;574375;246;24065;-78
2023/08/31 02:44:55;;;;;;;2.13;2.03;;;15.30;99.90;14.80;99335;;;;583724;244;24050;-78
2023/08/31 02:47:23;;;;;;;2.40;1.90;;;15.40;99.90;14.80;99344;;;;560792;251;24122;-78
2023/08/31 02:49:51;;;;;;;1.63;1.53;;;15.40;99.90;14.80;99351;;;;573177;248;24124;-78
2023/08/31 02:52:19;;;;;;;1.70;1.60;;;15.40;99.90;14.80;99344;;;;560172;252;24117;-78
2023/08/31 02:54:47;;;;;;;2.87;1.80;;;15.40;99.90;14.90;99343;;;;569884;247;24103;-79
2023/08/31 02:57:19;;;;;;;1.80;1.70;;;15.40;99.90;14.90;99337;;;;569845;251;24087;-79
2023/08/31 02:59:42;;;;;;;2.03;1.93;;;15.40;99.90;14.90;99338;;;;564425;248;24147;-78
2023/08/31 03:02:10;;;;;;;1.70;1.60;;;15.40;99.90;14.90;99340;;;;564484;251;24113;-79
2023/08/31 03:04:39;;;;;;;1.80;1.70;;;15.40;99.90;14.90;99337;;;;574158;245;24046;-79
2023/08/31 03:07:06;;;;;;;1.60;1.50;;;15.40;99.90;14.90;99345;;;;583486;244;24082;-79
2023/08/31 03:09:34;;;;;;;1.30;1.30;;;15.50;99.90;14.90;99340;;;;570636;246;24062;-79
2023/08/31 03:12:02;;;;;;;1.50;1.40;;;15.40;99.90;14.90;99344;;;;583475;244;24110;-79
2023/08/31 03:14:30;;;;;;;1.37;1.10;;;15.50;99.90;14.90;99351;;;;570671;246;24045;-79
2023/08/31 03:16:58;;;;;;;1.00;1.00;;;15.50;99.90;15.00;99349;;;;583313;244;24179;-79
2023/08/31 03:19:26;;;;;;;2.63;1.03;;;15.50;99.90;15.00;99351;;;;570602;246;24068;-79
2023/08/31 03:21:54;;;;;;;3.17;1.10;;;15.50;99.90;15.00;99353;;;;583425;244;24063;-79
2023/08/31 03:24:23;;;;;;;1.83;1.30;;;15.50;99.90;14.90;99358;;;;565330;246;35101;-79
2023/08/31 03:26:49;;;;;;;0.87;0.87;;;15.50;99.90;14.90;99356;;;;583659;244;24056;-79
2023/08/31 03:29:17;;;;;;;0.80;0.80;;;15.50;99.90;14.90;99359;;;;572009;246;24054;-79
2023/08/31 03:31:45;;;;;;;0.60;0.60;;;15.40;99.90;14.90;99356;;;;584127;241;24050;-77
2023/08/31 03:34:13;;;;;;;0.80;0.80;;;15.40;99.90;14.90;99354;;;;572245;246;24041;-79
2023/08/31 03:36:41;;;;;;;0.90;0.90;;;15.50;99.90;14.90;99359;;;;584618;240;24126;-79
2023/08/31 03:39:13;;;;;;;0.87;0.87;;;15.40;99.90;14.80;99354;;;;571513;246;24086;-78
2023/08/31 03:41:38;;;;;;;1.47;0.90;;;15.40;99.90;14.80;99355;;;;583628;240;25130;-78
2023/08/31 03:44:05;;;;;;;1.80;1.10;;;15.40;99.90;14.80;99356;;;;571357;246;24124;-79
2023/08/31 03:46:33;;;;;;;0.63;0.63;;;15.40;99.90;14.80;99357;;;;583956;241;24077;-78
2023/08/31 03:49:01;;;;;;;1.03;1.03;;;15.40;99.90;14.80;99362;;;;571126;246;24109;-78
2023/08/31 03:51:30;;;;;;;1.27;0.83;;;15.30;99.90;14.80;99356;;;;583871;244;24103;-78
2023/08/31 03:53:59;;;;;;;1.70;0.83;;;15.30;99.90;14.80;99364;;;;570847;246;24130;-78
2023/08/31 03:56:27;;;;;;;1.03;1.03;;;15.30;99.90;14.80;99367;;;;583287;244;24073;-78
2023/08/31 03:58:54;;;;;;;2.13;1.10;;;15.30;99.90;14.80;99369;;;;564125;251;24205;-77
2023/08/31 04:01:23;;;;;;;0.90;0.90;;;15.30;99.90;14.80;99369;;;;570951;246;24102;-77
2023/08/31 04:03:51;;;;;;;0.70;0.70;;;15.30;99.90;14.80;99371;;;;583570;246;24072;-77
2023/08/31 04:06:20;;;;;;;0.80;0.80;;;15.30;99.90;14.80;99368;;;;570874;246;24096;-77
2023/08/31 04:08:48;;;;;;;1.43;0.90;;;15.30;99.90;14.80;99363;;;;583619;244;24032;-77
2023/08/31 04:11:16;;;;;;;1.00;1.00;;;15.30;99.90;14.80;99364;;;;570545;246;24114;-78
2023/08/31 04:13:43;;;;;;;0.80;0.80;;;15.30;99.90;14.80;99358;;;;583386;244;24084;-77
2023/08/31 04:16:12;;;;;;;1.37;1.20;;;15.30;99.90;14.80;99364;;;;570554;246;24080;-79
2023/08/31 04:18:40;;;;;;;1.20;1.20;;;15.30;99.90;14.80;99363;;;;583332;244;24101;-78
2023/08/31 04:21:08;;;;;;;2.20;1.40;;;15.30;99.90;14.80;99361;;;;570558;246;24107;-78
2023/08/31 04:23:36;;;;;;;1.37;1.23;;;15.40;99.90;14.90;99370;;;;583323;241;24061;-78
2023/08/31 04:26:10;;;;;;;1.60;1.50;;;15.40;99.90;14.90;99374;;;;570299;246;24128;-78
2023/08/31 04:28:38;;;;;;;1.70;1.60;;;15.40;99.90;14.90;99378;;;;564478;251;24173;-78
2023/08/31 04:31:10;;;;;;;4.17;1.80;;;15.40;99.90;14.90;99371;;;;570553;246;24192;-77
2023/08/31 04:33:37;;;;;;;2.30;1.67;;;15.40;99.90;14.90;99370;;;;571928;246;24134;-77
2023/08/31 04:36:05;;;;;;;2.83;2.10;;;15.40;99.90;15.00;99360;;;;570071;246;24133;-78
2023/08/31 04:38:33;;;;;;;2.43;1.90;;;15.50;99.90;15.00;99366;;;;580848;246;24062;-79
2023/08/31 04:41:02;;;;;;;1.80;1.70;;;15.50;99.90;15.00;99362;;;;570112;246;24115;-79
2023/08/31 04:43:33;;;;;;;3.60;2.40;;;15.50;99.90;15.00;99368;;;;571977;246;24106;-78
2023/08/31 04:45:57;;;;;;;4.63;1.90;;;15.50;99.90;15.10;99377;;;;573142;246;24093;-77
2023/08/31 04:48:26;;;;;;;3.43;1.93;;;15.60;99.90;15.10;99372;;;;573260;246;24176;-78
2023/08/31 04:50:53;;;;;;;1.90;1.80;;;15.60;99.90;15.10;99368;;;;572988;246;24152;-77
2023/08/31 04:53:21;;;;;;;2.00;1.90;;;15.60;99.90;15.10;99375;;;;572639;246;24221;-78
2023/08/31 04:55:52;;;;;;;1.80;1.70;;;15.70;99.90;15.10;99363;;;;572536;246;24088;-78
2023/08/31 04:58:18;;;;;;;3.17;2.10;;;15.70;99.90;15.10;99377;;;;581016;246;24152;-78
2023/08/31 05:00:47;;;;;;;2.37;2.10;;;15.70;99.90;15.20;99372;;;;578814;246;24081;-78
2023/08/31 05:03:14;;;;;;;2.20;2.10;;;15.70;99.90;15.20;99363;;;;572402;246;24073;-78
2023/08/31 05:05:43;;;;;;;2.30;2.10;;;15.70;99.90;15.20;99365;;;;572388;246;24130;-79
2023/08/31 05:08:10;;;;;;;3.17;2.20;;;15.70;99.90;15.20;99369;;;;572364;246;24107;-79
2023/08/31 05:10:39;;;;;;;3.60;2.10;;;15.70;99.90;15.30;99370;;;;572419;246;24159;-78
2023/08/31 05:13:06;;;;;;;2.63;2.23;;;15.80;99.90;15.30;99372;;;;572265;246;24086;-78
2023/08/31 05:15:34;;;;;;;3.67;2.27;;;15.80;99.90;15.30;99362;;;;572408;242;24149;-77
2023/08/31 05:18:03;;;;;;;3.00;1.90;;;15.90;99.90;15.40;99370;;;;572334;246;24171;-78
2023/08/31 05:20:30;;;;;;;2.37;1.93;;;15.90;99.90;15.50;99374;;;;572246;246;24141;-77
2023/08/31 05:22:59;;;;;;;3.17;2.10;;;16.00;99.90;15.60;99371;;;;572177;246;24121;-77
2023/08/31 05:25:27;;;;;;;2.47;2.17;;;16.10;99.90;15.60;99366;;;;572235;246;24069;-77
2023/08/31 05:27:55;;;;;;;2.13;2.03;;;16.10;99.90;15.70;99369;;;;570197;246;24135;-77
2023/08/31 05:30:23;;;;;;;1.63;1.57;;;16.20;99.90;15.80;99371;;;;572215;246;24083;-78
2023/08/31 05:32:51;;;;;;;1.70;1.60;;;16.30;99.90;15.90;99369;;;;572121;246;24132;-78
2023/08/31 05:35:20;;;;;;;2.10;1.60;;;16.50;99.90;16.00;99366;;;;572198;246;24075;-78
2023/08/31 05:37:48;;;;;;;1.57;1.47;;;16.60;99.90;16.10;99364;;;;572213;246;24145;-78
2023/08/31 05:40:16;;;;;;;4.07;1.87;;;16.60;99.90;16.30;99368;;;;572197;246;24111;-79
2023/08/31 05:42:44;;;;;;;8.40;2.10;;;16.80;99.90;16.40;99367;;;;572165;246;24095;-79
2023/08/31 05:45:12;;;;;;;3.00;2.30;;;16.90;99.90;16.50;99373;;;;572182;246;24115;-78
2023/08/31 05:47:41;;;;;;;2.20;2.10;;;17.10;99.90;16.60;99384;;;;572173;246;24083;-78
2023/08/31 05:50:09;;;;;;;1.87;1.60;;;17.00;99.90;16.70;99386;;;;580768;246;24066;-79
2023/08/31 05:52:37;;;;;;;6.40;1.90;;;17.20;99.90;16.80;99390;;;;572201;246;24105;-78
2023/08/31 05:55:08;;;;;;;3.13;2.07;;;17.30;99.90;16.90;99407;;;;572032;246;24131;-79
2023/08/31 05:57:32;;;;;;;2.23;1.90;;;17.40;99.90;16.90;99398;;;;573283;246;24119;-78
2023/08/31 06:00:00;;;;;;;2.50;1.70;;;17.50;99.90;17.00;99394;;;;571261;246;24124;-78
2023/08/31 06:02:28;;;;;;;3.27;1.67;;;17.50;99.90;17.10;99401;;;;581798;246;24086;-78
2023/08/31 06:04:56;;;;;;;2.13;1.93;;;17.60;99.90;17.10;99405;;;;573017;246;24102;-78
2023/08/31 06:07:24;;;;;;;1.80;1.70;;;17.60;99.90;17.20;99403;;;;572775;246;24127;-78
2023/08/31 06:09:53;;;;;;;4.73;1.70;;;17.70;99.90;17.20;99398;;;;572753;246;24071;-78
2023/08/31 06:12:21;;;;;;;3.63;1.93;;;17.80;99.90;17.30;99405;;;;572694;246;24083;-78
2023/08/31 06:14:49;;;;;;;1.80;1.70;;;17.80;99.90;17.40;99404;;;;572572;246;24340;-78
2023/08/31 06:17:17;;;;;;;2.00;1.90;;;17.90;99.90;17.60;99404;;;;572427;246;24142;-78
2023/08/31 06:19:45;;;;;;;3.87;1.50;;;18.00;99.90;17.70;99398;;;;572501;246;24112;-77
2023/08/31 06:22:14;;;;;;;3.80;1.93;;;18.40;99.90;18.00;99398;;;;572415;246;24096;-78
2023/08/31 06:24:42;;;;;;;4.63;1.73;;;18.40;99.90;18.30;99387;;;;572426;246;24091;-78
2023/08/31 06:27:09;;;;;;;2.40;1.73;;;18.80;99.90;18.70;99402;;;;572468;246;24115;-78
2023/08/31 06:29:37;;;;;;;1.80;1.43;;;19.10;99.90;18.90;99396;;;;570369;246;24134;-78
2023/08/31 06:32:05;;;;;;;2.47;1.40;;;19.30;99.90;19.00;99404;;;;572327;246;24111;-77
2023/08/31 06:34:33;;;;;;;1.70;1.60;;;19.40;99.90;19.20;99403;;;;580843;246;23125;-78
2023/08/31 06:37:03;;;;;;;1.70;1.60;;;19.80;99.90;19.30;99405;;;;572115;246;24105;-78
2023/08/31 06:39:30;;;;;;;3.97;2.03;;;19.80;99.90;19.50;99407;;;;572123;246;23137;-78
2023/08/31 06:41:58;;;;;;;5.83;2.13;;;20.00;99.90;19.50;99403;;;;572125;246;23103;-78
2023/08/31 06:44:26;;;;;;;1.83;1.73;;;20.00;99.90;19.50;99405;;;;572168;246;23134;-78
2023/08/31 06:46:54;;;;;;;1.73;1.63;;;20.00;99.90;19.30;99409;;;;572200;246;23128;-78
2023/08/31 06:49:22;;;;;;;2.77;1.47;;;19.80;99.90;19.50;99406;;;;572124;246;24105;-78
2023/08/31 06:51:49;;;;;;;1.33;1.33;;;19.80;99.90;19.80;99412;;;;580900;246;23176;-78
2023/08/31 06:54:17;;;;;;;3.60;2.00;;;20.10;99.90;20.20;99408;;;;572127;246;23153;-78
2023/08/31 06:56:45;;;;;;;2.13;1.57;;;20.50;99.90;20.60;99406;;;;571920;246;24096;-79
2023/08/31 06:59:13;;;;;;;6.18;2.60;;;20.90;99.90;20.80;99398;;;;566773;246;46235;-79
2023/08/31 07:01:41;;;;;;;5.93;1.80;;;21.30;99.90;21.00;99406;;;;570109;246;24109;-79
2023/08/31 07:04:09;;;;;;;4.77;2.07;;;21.50;99.90;21.30;99409;;;;572071;246;26238;-79
2023/08/31 07:06:37;;;;;;;3.73;1.80;;;21.70;99.90;21.50;99415;;;;572176;246;24090;-79
2023/08/31 07:09:08;;;;;;;1.93;1.77;;;22.00;99.90;21.80;99403;;;;573432;246;24106;-79
2023/08/31 07:11:33;;;;;;;2.63;2.00;;;22.20;99.90;21.90;99416;;;;572962;246;24160;-79
2023/08/31 07:14:01;;;;;;;3.58;2.10;;;22.50;99.90;22.10;99418;;;;567939;246;35279;-79
2023/08/31 07:16:29;;;;;;;3.87;2.10;;;22.70;99.90;22.20;99421;;;;572887;246;24083;-79
2023/08/31 07:18:57;;;;;;;4.00;2.13;;;22.60;99.90;22.40;99420;;;;572666;246;24104;-79
2023/08/31 07:21:26;;;;;;;6.40;2.20;;;22.90;99.90;22.70;99425;;;;572709;246;23098;-79
2023/08/31 07:23:57;;;;;;;3.30;2.00;;;23.10;99.90;22.90;99430;;;;572638;246;24072;-78
2023/08/31 07:26:22;;;;;;;2.73;1.93;;;23.60;99.90;23.10;99425;;;;572072;246;23116;-79
2023/08/31 07:28:50;;;;;;;5.43;2.17;;;23.80;99.90;23.30;99432;;;;581114;246;23098;-78
2023/08/31 07:31:18;;;;;;;4.87;2.00;;;23.70;99.90;23.50;99430;;;;569972;246;23219;-78
2023/08/31 07:33:46;;;;;;;3.70;1.93;;;23.90;99.90;23.60;99435;;;;572404;246;23086;-79
2023/08/31 07:36:15;;;;;;;2.77;1.50;;;24.10;99.90;23.40;99428;;;;572410;246;24126;-79
2023/08/31 07:38:42;;;;;;;1.93;1.80;;;24.00;99.90;23.10;99424;;;;572355;246;23086;-79
2023/08/31 07:41:10;;;;;;;8.45;1.95;;;23.70;99.90;22.90;99423;;;;567351;246;35241;-78
2023/08/31 07:43:39;;;;;;;6.67;2.43;;;23.20;99.90;22.50;99431;;;;572313;246;24214;-79
2023/08/31 07:46:07;;;;;;;3.60;1.93;;;22.80;99.90;22.30;99431;;;;572142;246;24195;-79
2023/08/31 07:48:35;;;;;;;3.73;1.80;;;22.80;99.90;22.00;99437;;;;572097;246;24086;-79
2023/08/31 07:51:03;;;;;;;2.53;1.93;;;22.60;99.90;21.90;99439;;;;572174;246;24132;-78
2023/08/31 07:53:31;;;;;;;1.77;1.60;;;22.40;99.90;21.80;99432;;;;572055;246;24056;-78
2023/08/31 07:55:59;;;;;;;5.37;1.83;;;22.20;99.90;21.70;99442;;;;571960;246;24127;-79
2023/08/31 07:58:27;;;;;;;7.47;2.00;;;22.10;99.90;21.70;99449;;;;571819;246;24107;-78
2023/08/31 08:00:55;;;;;;;11.70;2.30;;;22.10;99.90;21.80;99454;;;;571660;246;24198;-79
2023/08/31 08:03:25;;;;;;;3.47;2.10;;;22.20;99.90;21.90;99464;;;;580823;246;24098;-79
2023/08/31 08:05:53;;;;;;;5.90;2.30;;;22.30;99.90;22.00;99461;;;;572146;246;24086;-77
2023/08/31 08:08:21;;;;;;;3.87;2.03;;;22.50;99.90;22.40;99470;;;;572161;246;24142;-77
2023/08/31 08:10:49;;;;;;;1.63;1.53;;;22.70;99.90;22.80;99470;;;;578334;246;24085;-78
2023/08/31 08:13:17;;;;;;;4.83;1.80;;;23.10;99.90;23.30;99464;;;;571791;246;24159;-79
2023/08/31 08:15:45;;;;;;;4.90;1.87;;;23.60;99.90;24.20;99462;;;;572132;246;23140;-78
2023/08/31 08:18:13;;;;;;;1.43;1.30;;;24.40;99.90;24.70;99468;;;;569802;246;24135;-79
2023/08/31 08:20:41;;;;;;;6.00;1.80;;;25.20;99.90;24.80;99465;;;;579576;246;23105;-77
2023/08/31 08:23:11;;;;;;;2.13;1.93;;;25.40;99.90;25.00;99462;;;;573155;246;23105;-78
2023/08/31 08:25:38;;;;;;;2.93;1.73;;;25.40;99.90;25.20;99467;;;;572857;246;24063;-79
2023/08/31 08:28:06;;;;;;;1.90;1.53;;;25.70;99.90;25.20;99470;;;;572907;246;23347;-79
2023/08/31 08:30:35;;;;;;;4.00;1.73;;;25.70;99.90;25.20;99474;;;;572644;246;23102;-79
2023/08/31 08:33:03;;;;;;;2.00;1.60;;;25.70;99.90;25.30;99458;;;;570323;246;23172;-79
2023/08/31 08:35:31;;;;;;;7.97;1.70;;;25.80;99.90;25.30;99458;;;;572719;246;23106;-78
2023/08/31 08:37:59;;;;;;;2.23;1.70;;;25.80;99.90;25.50;99468;;;;572650;246;23102;-78
2023/08/31 08:40:27;;;;;;;3.47;1.70;;;26.20;99.90;25.70;99473;;;;572547;246;23092;-79
2023/08/31 08:42:55;;;;;;;2.07;1.43;;;26.20;99.90;25.60;99478;;;;572467;246;23114;-78
2023/08/31 08:45:23;;;;;;;2.50;1.80;;;26.20;99.90;25.50;99488;;;;572086;246;24167;-79
2023/08/31 08:47:51;;;;;;;2.92;1.58;;;26.00;99.90;25.40;99494;;;;567414;246;46215;-79
2023/08/31 08:50:23;;;;;;;3.07;1.30;;;26.30;99.90;26.10;99490;;;;572478;246;24137;-78
2023/08/31 08:52:48;;;;;;;2.33;1.60;;;26.30;99.90;27.30;99494;;;;580818;246;24129;-79
2023/08/31 08:55:16;;;;;;;2.62;1.37;;;27.50;99.90;28.50;99501;;;;581039;246;24103;-79
2023/08/31 08:57:44;;;;;;;1.25;1.20;;;28.70;99.90;30.00;99501;;;;578001;246;23108;-79
2023/08/31 09:00:15;;;;;;;2.30;1.48;;;30.20;99.10;30.70;99510;;;;571677;246;24102;-80
2023/08/31 09:02:39;;;;;;;5.18;1.23;;;31.20;95.60;30.30;99503;;;;571415;246;23101;-79
2023/08/31 09:05:08;;;;;;;2.80;1.70;;;31.20;92.00;29.20;99501;;;;570194;246;23095;-79
2023/08/31 09:07:42;;;;;;;1.37;1.27;;;30.50;92.30;28.90;99507;;;;580910;243;23126;-78
2023/08/31 09:10:10;;;;;;;6.78;1.90;;;29.90;93.30;28.80;99510;;;;580441;246;23082;-78
2023/08/31 09:12:34;;;;;;;5.55;1.40;;;29.60;92.30;28.60;99509;;;;571856;246;23098;-78
2023/08/31 09:15:02;;;;;;;1.92;1.83;;;29.30;92.50;28.30;99518;;;;572011;246;23100;-78
2023/08/31 09:17:39;;;;;;;3.85;1.60;;;29.10;92.00;28.00;99520;;;;571885;246;23090;-79
2023/08/31 09:20:10;;;;;;;1.90;1.27;;;28.70;92.40;27.60;99508;;;;580641;246;23113;-78
2023/08/31 09:22:36;;;;;;;1.75;1.25;;;28.10;92.30;27.40;99505;;;;571743;246;23130;-78
2023/08/31 09:25:04;;;;;;;1.83;1.58;;;27.90;92.50;27.20;99512;;;;572215;246;23092;-77
2023/08/31 09:27:33;;;;;;;2.43;1.43;;;27.90;92.50;26.90;99518;;;;572089;246;23085;-77
2023/08/31 09:30:00;;;;;;;1.93;1.43;;;27.60;92.80;26.60;99513;;;;571696;246;24066;-78
2023/08/31 09:32:29;;;;;;;1.73;1.63;;;26.90;94.10;26.30;99513;;;;582359;243;23088;-78
2023/08/31 09:34:57;;;;;;;1.40;1.30;;;26.90;94.10;26.00;99527;;;;570886;246;23105;-79
2023/08/31 09:37:25;;;;;;;1.80;1.70;;;26.60;94.20;25.80;99522;;;;572646;246;23132;-78
2023/08/31 09:39:53;;;;;;;2.20;1.93;;;26.30;94.80;25.60;99520;;;;572737;246;23094;-78
2023/08/31 09:42:21;;;;;;;5.30;2.10;;;26.00;96.30;25.50;99530;;;;572641;246;23124;-78
2023/08/31 09:44:50;;;;;;;2.10;1.80;;;25.90;96.90;25.40;99527;;;;572699;246;23083;-79
2023/08/31 09:47:18;;;;;;;2.23;1.60;;;25.90;96.90;25.40;99533;;;;572639;246;24114;-78
2023/08/31 09:49:46;;;;;;;3.77;1.20;;;25.80;96.90;25.40;99535;;;;581189;242;24109;-78
2023/08/31 09:52:14;;;;;;;1.57;1.43;;;25.80;96.80;25.40;99542;;;;571914;246;23169;-78
2023/08/31 09:54:43;;;;;;;2.75;1.62;;;25.90;96.90;25.50;99537;;;;570432;246;23161;-78
2023/08/31 09:57:10;;;;;;;2.73;1.30;;;25.90;96.90;25.70;99541;;;;571856;246;23108;-78
2023/08/31 09:59:38;;;;;;;1.67;1.30;;;26.10;96.70;25.70;99536;;;;580747;246;24147;-78
2023/08/31 10:02:06;;;;;;;1.70;1.57;;;26.10;96.50;25.80;99530;;;;580725;242;23149;-78
2023/08/31 10:04:34;;;;;;;4.00;1.50;;;26.20;96.50;25.80;99534;;;;572045;246;24156;-78
2023/08/31 10:07:02;;;;;;;1.33;1.23;;;26.20;95.90;25.90;99526;;;;570189;246;23105;-78
2023/08/31 10:09:30;;;;;;;2.13;1.60;;;26.30;96.20;26.00;99534;;;;572063;246;23261;-78
2023/08/31 10:12:02;;;;;;;2.20;1.53;;;26.50;96.20;26.20;99527;;;;572160;246;23121;-78
2023/08/31 10:14:26;;;;;;;2.22;2.03;;;26.60;96.20;26.30;99532;;;;571511;242;23100;-78
2023/08/31 10:16:54;;;;;;;1.63;1.53;;;26.80;96.20;26.40;99531;;;;572226;246;23087;-78
2023/08/31 10:19:23;;;;;;;1.90;1.33;;;26.90;95.70;26.50;99526;;;;571720;246;25171;-78
2023/08/31 10:21:51;;;;;;;1.20;1.10;;;26.90;95.60;26.40;99524;;;;572174;246;23114;-79
2023/08/31 10:24:19;;;;;;;1.40;1.30;;;26.90;95.30;26.40;99535;;;;572177;246;23091;-78
2023/08/31 10:26:47;;;;;;;1.40;1.30;;;26.80;94.70;26.30;99527;;;;572167;246;23107;-78
2023/08/31 10:29:27;;;;;;;1.93;1.60;;;26.80;94.50;26.30;99531;;;;572380;246;24080;-79
2023/08/31 10:31:58;;;;;;;3.97;1.48;;;26.80;94.30;26.30;99524;;;;569964;246;23091;-77
2023/08/31 10:34:25;;;;;;;2.60;1.50;;;26.80;94.50;26.30;99521;;;;571875;246;23082;-78
2023/08/31 10:36:50;;;;;;;3.07;1.80;;;26.80;94.10;26.40;99518;;;;570601;246;23113;-79
2023/08/31 10:39:22;;;;;;;1.70;1.37;;;26.80;93.70;26.60;99522;;;;572218;246;23095;-78
2023/08/31 10:41:55;;;;;;;1.20;1.20;;;26.90;93.80;26.80;99518;;;;571909;246;23141;-78
2023/08/31 10:44:24;;;;;;;2.10;1.90;;;27.40;93.10;27.10;99514;;;;568557;246;35189;-79
2023/08/31 10:46:55;;;;;;;1.83;1.50;;;27.40;93.10;27.10;99507;;;;570456;246;23109;-79
2023/08/31 10:49:26;;;;;;;1.52;1.20;;;27.50;92.80;27.20;99510;;;;570268;246;23120;-80
2023/08/31 10:51:50;;;;;;;1.33;1.30;;;27.60;91.50;27.20;99512;;;;578278;246;23098;-79
2023/08/31 10:54:24;;;;;;;4.75;1.50;;;27.70;91.50;27.20;99512;;;;569145;246;23112;-79
2023/08/31 11:13:38;;;;;;;3.45;1.58;;;27.30;91.00;26.60;99511;;;;617831;228;33599;-77
2023/08/31 11:16:07;;;;;;;2.20;1.33;;;27.20;92.10;26.70;99503;;;;607192;232;23082;-77
2023/08/31 11:18:38;;;;;;;1.77;1.37;;;27.20;92.00;26.70;99497;;;;606893;232;24058;-78
2023/08/31 11:21:06;;;;;;;2.45;1.70;;;27.20;91.70;26.70;99493;;;;606125;237;24117;-79
2023/08/31 11:23:30;;;;;;;3.03;1.98;;;27.10;91.40;26.60;99495;;;;606543;237;23059;-79
2023/08/31 11:25:59;;;;;;;2.00;1.80;;;27.10;91.00;26.70;99499;;;;607074;236;23113;-78
2023/08/31 11:28:27;;;;;;;6.47;1.73;;;27.10;91.00;26.60;99485;;;;607141;236;23052;-77
2023/08/31 11:30:55;;;;;;;3.37;1.67;;;27.10;90.80;26.60;99494;;;;606031;237;23176;-79
2023/08/31 11:33:22;;;;;;;3.17;1.90;;;27.00;91.10;26.60;99490;;;;607150;236;23091;-78
2023/08/31 11:35:50;;;;;;;1.50;1.50;;;27.00;91.30;26.50;99500;;;;607251;236;23056;-81
2023/08/31 11:38:21;;;;;;;2.37;1.63;;;27.00;91.60;26.50;99501;;;;607572;232;23098;-81